createdAt,value
2023-05-17T00:02:07.399Z,0.69
2023-05-17T00:07:14.604Z,0.64
2023-05-17T00:12:21.887Z,0.60
2023-05-17T00:17:29.172Z,0.68
2023-05-17T00:22:36.669Z,0.69
2023-05-17T00:27:44.001Z,0.62
2023-05-17T00:32:51.415Z,0.63
2023-05-17T00:37:58.634Z,0.70
2023-05-17T00:43:06.006Z,0.65
2023-05-17T00:48:13.246Z,0.63
2023-05-17T00:53:20.588Z,0.60
2023-05-17T00:58:27.894Z,0.69
2023-05-17T01:03:35.453Z,0.61
2023-05-17T01:08:42.576Z,0.60
2023-05-17T01:13:50.038Z,0.63
2023-05-17T01:18:57.426Z,0.72
2023-05-17T01:24:04.859Z,0.64
2023-05-17T01:29:12.055Z,0.64
2023-05-17T01:34:19.439Z,0.67
2023-05-17T01:39:26.639Z,0.69
2023-05-17T01:44:34.130Z,0.66
2023-05-17T01:49:41.427Z,0.62
2023-05-17T01:54:48.744Z,0.76
2023-05-17T01:59:56.027Z,0.72
2023-05-17T02:05:03.513Z,0.72
2023-05-17T02:10:10.722Z,0.73
2023-05-17T02:15:18.141Z,0.82
2023-05-17T02:20:25.373Z,0.71
2023-05-17T02:25:32.790Z,0.72
2023-05-17T02:30:40.038Z,0.71
2023-05-17T02:35:47.517Z,0.70
2023-05-17T02:40:54.730Z,0.68
2023-05-17T02:46:02.193Z,0.65
2023-05-17T02:51:09.536Z,0.73
2023-05-17T02:56:16.976Z,0.71
2023-05-17T03:01:25.309Z,0.68
2023-05-17T03:06:32.814Z,0.61
2023-05-17T03:11:40.054Z,0.55
2023-05-17T03:16:47.406Z,0.70
2023-05-17T03:21:54.896Z,0.67
2023-05-17T03:27:02.260Z,0.58
2023-05-17T03:32:09.443Z,0.61
2023-05-17T03:37:16.813Z,0.80
2023-05-17T03:42:24.107Z,0.66
2023-05-17T03:47:31.453Z,0.61
2023-05-17T03:52:38.764Z,0.58
2023-05-17T03:57:46.072Z,0.60
2023-05-17T04:02:53.604Z,0.67
2023-05-17T04:08:00.948Z,0.55
2023-05-17T04:13:08.146Z,0.59
2023-05-17T04:18:15.680Z,0.69
2023-05-17T04:23:22.778Z,0.54
2023-05-17T04:28:30.207Z,0.61
2023-05-17T04:33:37.490Z,0.60
2023-05-17T04:38:45.258Z,0.61
2023-05-17T04:43:52.560Z,0.80
2023-05-17T04:49:00.115Z,0.74
2023-05-17T04:54:07.217Z,0.65
2023-05-17T04:59:14.694Z,0.58
2023-05-17T05:04:21.971Z,0.79
2023-05-17T05:09:29.251Z,0.63
2023-05-17T05:14:36.484Z,0.84
2023-05-17T05:19:44.027Z,0.65
2023-05-17T05:24:51.223Z,0.59
2023-05-17T05:29:58.694Z,0.68
2023-05-17T05:35:06.058Z,0.85
2023-05-17T05:40:13.510Z,0.62
2023-05-17T05:45:20.832Z,0.58
2023-05-17T05:50:28.450Z,0.60
2023-05-17T05:55:35.662Z,0.87
2023-05-17T06:00:42.957Z,0.61
2023-05-17T06:05:50.242Z,0.61
2023-05-17T06:10:57.687Z,0.65
2023-05-17T06:16:04.903Z,0.56
2023-05-17T06:21:12.377Z,0.61
2023-05-17T06:26:19.561Z,0.56
2023-05-17T06:31:26.993Z,0.67
2023-05-17T06:36:35.282Z,0.57
2023-05-17T06:41:41.224Z,0.54
2023-05-17T06:46:48.635Z,0.48
2023-05-17T06:51:56.105Z,0.56
2023-05-17T06:57:03.347Z,0.63
2023-05-17T07:02:10.695Z,0.51
2023-05-17T07:07:17.996Z,0.57
2023-05-17T07:12:25.403Z,0.57
2023-05-17T07:17:32.677Z,0.56
2023-05-17T07:22:40.072Z,0.52
2023-05-17T07:27:47.388Z,0.41
2023-05-17T07:32:54.913Z,0.76
2023-05-17T07:38:02.151Z,0.45
2023-05-17T07:43:09.792Z,0.50
2023-05-17T07:48:17.258Z,0.49
2023-05-17T07:53:24.463Z,0.51
2023-05-17T07:58:31.823Z,0.48
2023-05-17T08:03:39.299Z,0.32
2023-05-17T08:08:46.593Z,0.40
2023-05-17T08:13:53.985Z,0.40
2023-05-17T08:19:01.509Z,0.35
2023-05-17T08:24:08.865Z,0.45
2023-05-17T08:29:16.093Z,0.43
2023-05-17T08:34:23.570Z,0.44
2023-05-17T08:39:30.913Z,0.41
2023-05-17T08:44:38.461Z,0.39
2023-05-17T08:49:48.082Z,0.46
2023-05-17T08:54:52.674Z,0.44
2023-05-17T08:59:59.944Z,0.42
2023-05-17T09:05:09.779Z,0.40
2023-05-17T09:10:16.915Z,0.41
2023-05-17T09:15:24.266Z,0.51
2023-05-17T09:20:31.500Z,0.38
2023-05-17T09:25:38.946Z,0.36
2023-05-17T09:30:46.096Z,0.37
2023-05-17T09:35:53.382Z,0.31
2023-05-17T09:41:00.698Z,0.39
2023-05-17T09:46:08.141Z,0.39
2023-05-17T09:51:15.453Z,0.34
2023-05-17T09:56:22.795Z,0.43
2023-05-17T10:01:30.143Z,0.39
2023-05-17T10:06:46.474Z,0.33
2023-05-17T10:11:44.469Z,0.40
2023-05-17T10:16:51.891Z,0.35
2023-05-17T10:22:08.279Z,0.35
2023-05-17T10:27:05.855Z,0.41
2023-05-17T10:32:13.197Z,0.37
2023-05-17T10:37:20.635Z,0.35
2023-05-17T10:42:27.960Z,0.41
2023-05-17T10:47:35.533Z,0.49
2023-05-17T10:52:42.608Z,0.39
2023-05-17T10:57:51.414Z,0.42
2023-05-17T11:02:56.992Z,0.38
2023-05-17T11:08:04.294Z,0.40
2023-05-17T11:13:11.475Z,0.37
2023-05-17T11:18:29.543Z,0.31
2023-05-17T11:23:25.796Z,0.34
2023-05-17T11:28:33.291Z,0.39
2023-05-17T11:33:40.752Z,0.36
2023-05-17T11:38:49.923Z,0.40
2023-05-17T11:43:54.848Z,0.37
2023-05-17T11:49:02.343Z,0.39
2023-05-17T11:54:09.642Z,0.35
2023-05-17T11:59:17.029Z,0.36
2023-05-17T12:04:24.262Z,0.39
2023-05-17T12:09:31.683Z,0.36
2023-05-17T12:14:38.887Z,0.35
2023-05-17T12:19:46.446Z,0.39
2023-05-17T12:24:53.537Z,0.40
2023-05-17T12:30:00.917Z,0.36
2023-05-17T12:35:09.733Z,0.47
2023-05-17T12:40:15.212Z,0.38
2023-05-17T12:45:25.343Z,0.36
2023-05-17T12:50:22.663Z,0.39
2023-05-17T12:55:30.110Z,0.39
2023-05-17T13:00:42.946Z,0.35
2023-05-17T13:05:40.229Z,0.40
2023-05-17T13:10:56.379Z,0.41
2023-05-17T13:15:52.711Z,0.30
2023-05-17T13:21:00.773Z,0.38
2023-05-17T13:26:08.131Z,0.39
2023-05-17T13:31:26.968Z,0.39
2023-05-17T13:36:24.412Z,0.44
2023-05-17T13:41:31.875Z,0.39
2023-05-17T13:46:39.330Z,0.56
2023-05-17T13:51:47.082Z,0.47
2023-05-17T13:56:54.608Z,0.43
2023-05-17T14:02:01.867Z,0.43
2023-05-17T14:07:13.223Z,0.38
2023-05-17T14:12:10.522Z,0.44
2023-05-17T14:17:22.678Z,0.91
2023-05-17T14:22:19.866Z,0.38
2023-05-17T14:27:30.070Z,0.94
2023-05-17T14:32:27.406Z,0.42
2023-05-17T14:37:38.840Z,0.42
2023-05-17T14:42:36.153Z,0.41
2023-05-17T14:47:46.562Z,0.38
2023-05-17T14:52:43.697Z,0.39
2023-05-17T14:57:53.557Z,0.50
2023-05-17T15:03:00.932Z,0.45
2023-05-17T15:08:13.614Z,0.57
2023-05-17T15:13:10.792Z,0.42
2023-05-17T15:18:22.623Z,0.39
2023-05-17T15:23:19.878Z,0.46
2023-05-17T15:28:30.512Z,0.49
2023-05-17T15:33:27.947Z,0.47
2023-05-17T15:38:41.137Z,0.47
2023-05-17T15:43:38.299Z,0.47
2023-05-17T15:48:48.945Z,0.43
2023-05-17T15:53:46.101Z,0.56
2023-05-17T15:58:54.901Z,0.55
2023-05-17T16:04:02.276Z,0.56
2023-05-17T16:09:10.650Z,0.54
2023-05-17T16:14:25.987Z,0.54
2023-05-17T16:19:23.148Z,0.55
2023-05-17T16:24:34.357Z,0.62
2023-05-17T16:29:31.684Z,0.56
2023-05-17T16:39:48.749Z,0.70
2023-05-17T16:49:57.592Z,1.00
2023-05-17T16:55:02.585Z,1.95
2023-05-17T17:00:10.018Z,0.59
2023-05-17T17:05:26.548Z,0.59
2023-05-17T17:10:23.812Z,0.71
2023-05-17T17:15:31.770Z,0.66
2023-05-17T17:20:39.213Z,0.58
2023-05-17T17:25:47.049Z,0.65
2023-05-17T17:30:54.855Z,0.56
2023-05-17T17:36:02.196Z,0.55
2023-05-17T17:46:15.478Z,0.57
2023-05-17T17:51:24.805Z,0.60
2023-05-17T17:56:32.779Z,0.63
2023-05-17T18:01:41.629Z,0.65
2023-05-17T18:06:49.181Z,0.70
2023-05-17T18:11:57.000Z,0.55
2023-05-17T18:17:04.408Z,0.66
2023-05-17T18:22:11.799Z,0.63
2023-05-17T18:32:25.794Z,0.57
2023-05-17T18:42:35.546Z,0.54
2023-05-17T18:47:40.915Z,0.64
2023-05-17T18:52:48.220Z,0.70
2023-05-17T18:58:04.908Z,0.84
2023-05-17T19:03:02.484Z,0.65
2023-05-17T19:08:12.392Z,0.64
2023-05-17T19:13:19.986Z,0.64
2023-05-17T19:18:27.473Z,0.71
2023-05-17T19:23:34.975Z,0.67
2023-05-17T19:28:42.221Z,0.69
2023-05-17T19:33:49.626Z,0.74
2023-05-17T19:38:56.820Z,0.70
2023-05-17T19:44:04.289Z,0.81
2023-05-17T19:49:11.583Z,0.96
2023-05-17T19:54:19.005Z,0.82
2023-05-17T19:59:26.233Z,0.88
2023-05-17T20:04:33.659Z,0.96
2023-05-17T20:09:40.974Z,0.75
2023-05-17T20:14:48.295Z,0.78
2023-05-17T20:19:55.703Z,0.84
2023-05-17T20:25:03.017Z,0.88
2023-05-17T20:30:10.219Z,0.94
2023-05-17T20:35:17.646Z,1.03
2023-05-17T20:40:24.942Z,1.00
2023-05-17T20:45:32.309Z,0.88
2023-05-17T20:50:39.623Z,0.93
2023-05-17T20:55:46.989Z,0.93
2023-05-17T21:00:54.221Z,0.85
2023-05-17T21:06:02.004Z,0.97
2023-05-17T21:11:09.302Z,0.87
2023-05-17T21:16:16.749Z,1.09
2023-05-17T21:21:23.967Z,1.06
2023-05-17T21:26:31.400Z,1.17
2023-05-17T21:31:38.720Z,1.12
2023-05-17T21:36:46.213Z,1.21
2023-05-17T21:41:53.564Z,1.18
2023-05-17T21:47:01.198Z,1.21
2023-05-17T21:52:08.505Z,1.23
2023-05-17T21:57:15.907Z,1.25
2023-05-17T22:02:23.189Z,1.12
2023-05-17T22:07:30.698Z,1.30
2023-05-17T22:12:38.313Z,1.40
2023-05-17T22:17:51.777Z,1.30
2023-05-17T22:22:51.646Z,1.60
2023-05-17T22:27:59.051Z,1.27
2023-05-17T22:33:06.379Z,1.09
2023-05-17T22:38:13.722Z,1.25
2023-05-17T22:43:20.938Z,1.44
2023-05-17T22:48:28.684Z,1.12
2023-05-17T22:53:35.993Z,1.24
2023-05-17T22:58:43.502Z,1.11
2023-05-17T23:03:50.864Z,1.13
2023-05-17T23:08:58.288Z,1.16
2023-05-17T23:14:05.640Z,1.16
2023-05-17T23:19:13.029Z,1.21
2023-05-17T23:24:20.366Z,1.38
2023-05-17T23:29:27.723Z,1.23
2023-05-17T23:34:35.078Z,1.20
2023-05-17T23:39:42.505Z,1.28
2023-05-17T23:44:49.789Z,1.08
2023-05-17T23:49:57.231Z,1.31
2023-05-17T23:55:04.587Z,1.31
